sensor_id;sensor_type;location;lat;lon;timestamp;pressure;altitude;pressure_sealevel;temperature;humidity
53546;BME280;39432;51.902;10.844;2024-03-02T00:01:21;98385.38;;;10.19;100.00
53546;BME280;39432;51.902;10.844;2024-03-02T00:03:52;98378.06;;;10.49;100.00
53546;BME280;39432;51.902;10.844;2024-03-02T00:06:22;98383.56;;;9.65;100.00
53546;BME280;39432;51.902;10.844;2024-03-02T00:08:57;98392.75;;;9.85;100.00
53546;BME280;39432;51.902;10.844;2024-03-02T00:11:27;98386.63;;;8.84;100.00
53546;BME280;39432;51.902;10.844;2024-03-02T00:14:00;98385.94;;;9.28;100.00
53546;BME280;39432;51.902;10.844;2024-03-02T00:16:30;98377.81;;;9.12;100.00
53546;BME280;39432;51.902;10.844;2024-03-02T00:19:02;98378.09;;;9.06;100.00
53546;BME280;39432;51.902;10.844;2024-03-02T00:21:32;98381.50;;;9.47;100.00
53546;BME280;39432;51.902;10.844;2024-03-02T00:24:09;98378.13;;;9.60;100.00
53546;BME280;39432;51.902;10.844;2024-03-02T00:26:48;98381.41;;;9.62;100.00
53546;BME280;39432;51.902;10.844;2024-03-02T00:29:23;98385.34;;;9.41;100.00
53546;BME280;39432;51.902;10.844;2024-03-02T00:31:53;98386.06;;;8.97;100.00
53546;BME280;39432;51.902;10.844;2024-03-02T00:34:23;98390.50;;;8.47;100.00
53546;BME280;39432;51.902;10.844;2024-03-02T00:36:53;98398.25;;;9.25;100.00
53546;BME280;39432;51.902;10.844;2024-03-02T00:39:23;98395.13;;;9.52;100.00
53546;BME280;39432;51.902;10.844;2024-03-02T00:41:53;98381.75;;;9.50;100.00
53546;BME280;39432;51.902;10.844;2024-03-02T00:44:26;98384.56;;;9.85;100.00
53546;BME280;39432;51.902;10.844;2024-03-02T00:47:01;98382.13;;;9.29;100.00
53546;BME280;39432;51.902;10.844;2024-03-02T00:49:31;98386.34;;;8.95;100.00
53546;BME280;39432;51.902;10.844;2024-03-02T00:52:05;98378.72;;;8.77;100.00
53546;BME280;39432;51.902;10.844;2024-03-02T00:54:36;98382.75;;;9.05;100.00
53546;BME280;39432;51.902;10.844;2024-03-02T00:57:10;98388.25;;;9.99;100.00
53546;BME280;39432;51.902;10.844;2024-03-02T00:59:43;98374.31;;;10.06;100.00
53546;BME280;39432;51.902;10.844;2024-03-02T01:02:13;98380.94;;;10.34;100.00
53546;BME280;39432;51.902;10.844;2024-03-02T01:04:43;98379.22;;;10.03;100.00
53546;BME280;39432;51.902;10.844;2024-03-02T01:07:13;98385.56;;;8.69;100.00
53546;BME280;39432;51.902;10.844;2024-03-02T01:09:42;98382.16;;;9.18;100.00
53546;BME280;39432;51.902;10.844;2024-03-02T01:12:12;98378.81;;;9.37;100.00
53546;BME280;39432;51.902;10.844;2024-03-02T01:14:45;98385.38;;;9.31;100.00
53546;BME280;39432;51.902;10.844;2024-03-02T01:17:15;98379.03;;;9.95;100.00
53546;BME280;39432;51.902;10.844;2024-03-02T01:19:45;98376.56;;;9.44;100.00
53546;BME280;39432;51.902;10.844;2024-03-02T01:22:15;98382.72;;;10.48;100.00
53546;BME280;39432;51.902;10.844;2024-03-02T01:24:50;98371.00;;;9.64;100.00
53546;BME280;39432;51.902;10.844;2024-03-02T01:27:21;98374.50;;;9.20;100.00
53546;BME280;39432;51.902;10.844;2024-03-02T01:29:53;98370.53;;;9.96;100.00
53546;BME280;39432;51.902;10.844;2024-03-02T01:32:23;98377.00;;;9.66;100.00
53546;BME280;39432;51.902;10.844;2024-03-02T01:34:54;98371.09;;;9.49;100.00
53546;BME280;39432;51.902;10.844;2024-03-02T01:37:23;98377.13;;;9.46;100.00
53546;BME280;39432;51.902;10.844;2024-03-02T01:39:53;98381.91;;;9.15;100.00
53546;BME280;39432;51.902;10.844;2024-03-02T01:42:23;98383.34;;;10.01;100.00
53546;BME280;39432;51.902;10.844;2024-03-02T01:44:56;98381.47;;;9.96;100.00
53546;BME280;39432;51.902;10.844;2024-03-02T01:47:26;98382.56;;;9.51;100.00
53546;BME280;39432;51.902;10.844;2024-03-02T01:49:56;98384.28;;;9.81;100.00
53546;BME280;39432;51.902;10.844;2024-03-02T01:52:27;98384.19;;;10.36;100.00
53546;BME280;39432;51.902;10.844;2024-03-02T01:54:57;98375.94;;;10.41;100.00
53546;BME280;39432;51.902;10.844;2024-03-02T01:57:27;98376.50;;;9.59;100.00
53546;BME280;39432;51.902;10.844;2024-03-02T02:00:00;98374.66;;;8.80;100.00
53546;BME280;39432;51.902;10.844;2024-03-02T02:02:37;98379.53;;;9.97;100.00
53546;BME280;39432;51.902;10.844;2024-03-02T02:05:07;98379.25;;;9.54;100.00
53546;BME280;39432;51.902;10.844;2024-03-02T02:07:38;98374.66;;;8.69;100.00
53546;BME280;39432;51.902;10.844;2024-03-02T02:10:08;98388.16;;;9.20;100.00
53546;BME280;39432;51.902;10.844;2024-03-02T02:12:38;98390.88;;;9.20;100.00
53546;BME280;39432;51.902;10.844;2024-03-02T02:15:27;98390.22;;;9.44;100.00
53546;BME280;39432;51.902;10.844;2024-03-02T02:17:58;98384.25;;;9.37;100.00
53546;BME280;39432;51.902;10.844;2024-03-02T02:20:28;98389.72;;;8.41;100.00
53546;BME280;39432;51.902;10.844;2024-03-02T02:23:02;98395.19;;;9.32;100.00
53546;BME280;39432;51.902;10.844;2024-03-02T02:25:32;98392.31;;;9.03;100.00
53546;BME280;39432;51.902;10.844;2024-03-02T02:28:02;98402.03;;;9.34;100.00
53546;BME280;39432;51.902;10.844;2024-03-02T02:30:33;98391.66;;;9.86;100.00
53546;BME280;39432;51.902;10.844;2024-03-02T02:33:03;98394.25;;;8.92;100.00
53546;BME280;39432;51.902;10.844;2024-03-02T02:35:33;98393.84;;;9.29;100.00
53546;BME280;39432;51.902;10.844;2024-03-02T02:38:06;98392.28;;;9.72;100.00
53546;BME280;39432;51.902;10.844;2024-03-02T02:40:36;98381.78;;;9.90;100.00
53546;BME280;39432;51.902;10.844;2024-03-02T02:43:06;98390.22;;;9.44;100.00
53546;BME280;39432;51.902;10.844;2024-03-02T02:45:36;98390.41;;;9.03;100.00
53546;BME280;39432;51.902;10.844;2024-03-02T02:48:06;98402.34;;;9.17;100.00
53546;BME280;39432;51.902;10.844;2024-03-02T02:50:37;98396.06;;;9.17;100.00
53546;BME280;39432;51.902;10.844;2024-03-02T02:53:09;98401.94;;;8.69;100.00
53546;BME280;39432;51.902;10.844;2024-03-02T02:55:39;98399.44;;;8.78;100.00
53546;BME280;39432;51.902;10.844;2024-03-02T02:58:10;98401.94;;;8.13;100.00
53546;BME280;39432;51.902;10.844;2024-03-02T03:00:41;98406.28;;;8.35;100.00
53546;BME280;39432;51.902;10.844;2024-03-02T03:03:11;98409.78;;;7.89;100.00
53546;BME280;39432;51.902;10.844;2024-03-02T03:05:41;98413.66;;;8.39;100.00
53546;BME280;39432;51.902;10.844;2024-03-02T03:08:14;98408.34;;;9.19;100.00
53546;BME280;39432;51.902;10.844;2024-03-02T03:10:44;98391.56;;;8.66;100.00
53546;BME280;39432;51.902;10.844;2024-03-02T03:13:14;98397.00;;;8.87;100.00
53546;BME280;39432;51.902;10.844;2024-03-02T03:15:43;98397.75;;;9.13;100.00
53546;BME280;39432;51.902;10.844;2024-03-02T03:18:13;98402.59;;;9.21;100.00
53546;BME280;39432;51.902;10.844;2024-03-02T03:20:43;98394.84;;;8.68;100.00
53546;BME280;39432;51.902;10.844;2024-03-02T03:23:16;98393.47;;;8.61;100.00
53546;BME280;39432;51.902;10.844;2024-03-02T03:25:46;98403.53;;;7.99;100.00
53546;BME280;39432;51.902;10.844;2024-03-02T03:28:16;98416.63;;;8.79;100.00
53546;BME280;39432;51.902;10.844;2024-03-02T03:30:46;98416.66;;;8.58;100.00
53546;BME280;39432;51.902;10.844;2024-03-02T03:33:16;98417.72;;;8.78;100.00
53546;BME280;39432;51.902;10.844;2024-03-02T03:35:46;98417.19;;;8.14;100.00
53546;BME280;39432;51.902;10.844;2024-03-02T03:38:18;98424.81;;;8.33;100.00
53546;BME280;39432;51.902;10.844;2024-03-02T03:40:48;98421.56;;;8.31;100.00
53546;BME280;39432;51.902;10.844;2024-03-02T03:43:18;98425.94;;;8.37;100.00
53546;BME280;39432;51.902;10.844;2024-03-02T03:45:48;98426.38;;;7.73;100.00
53546;BME280;39432;51.902;10.844;2024-03-02T03:48:18;98436.84;;;8.42;100.00
53546;BME280;39432;51.902;10.844;2024-03-02T03:50:48;98432.31;;;7.59;100.00
53546;BME280;39432;51.902;10.844;2024-03-02T03:53:21;98440.56;;;7.95;100.00
53546;BME280;39432;51.902;10.844;2024-03-02T03:55:51;98442.56;;;7.32;100.00
53546;BME280;39432;51.902;10.844;2024-03-02T03:58:21;98454.53;;;7.36;100.00
53546;BME280;39432;51.902;10.844;2024-03-02T04:00:51;98455.06;;;7.33;100.00
53546;BME280;39432;51.902;10.844;2024-03-02T04:03:21;98465.53;;;7.61;100.00
53546;BME280;39432;51.902;10.844;2024-03-02T04:05:51;98467.47;;;7.13;100.00
53546;BME280;39432;51.902;10.844;2024-03-02T04:08:23;98476.78;;;7.23;100.00
53546;BME280;39432;51.902;10.844;2024-03-02T04:10:54;98486.81;;;7.70;100.00
53546;BME280;39432;51.902;10.844;2024-03-02T04:13:24;98487.03;;;7.63;100.00
53546;BME280;39432;51.902;10.844;2024-03-02T04:15:54;98487.41;;;7.87;100.00
53546;BME280;39432;51.902;10.844;2024-03-02T04:18:23;98484.97;;;7.96;100.00
53546;BME280;39432;51.902;10.844;2024-03-02T04:20:54;98473.44;;;7.68;100.00
53546;BME280;39432;51.902;10.844;2024-03-02T04:23:27;98489.16;;;8.49;100.00
53546;BME280;39432;51.902;10.844;2024-03-02T04:25:57;98487.53;;;8.53;100.00
53546;BME280;39432;51.902;10.844;2024-03-02T04:28:27;98473.09;;;8.48;100.00
53546;BME280;39432;51.902;10.844;2024-03-02T04:30:57;98460.78;;;8.25;100.00
53546;BME280;39432;51.902;10.844;2024-03-02T04:33:27;98453.19;;;8.37;100.00
53546;BME280;39432;51.902;10.844;2024-03-02T04:35:57;98448.78;;;8.10;100.00
53546;BME280;39432;51.902;10.844;2024-03-02T04:38:29;98458.88;;;8.20;100.00
53546;BME280;39432;51.902;10.844;2024-03-02T04:40:59;98461.59;;;8.25;100.00
53546;BME280;39432;51.902;10.844;2024-03-02T04:43:29;98463.00;;;8.43;100.00
53546;BME280;39432;51.902;10.844;2024-03-02T04:45:59;98453.69;;;8.95;100.00
53546;BME280;39432;51.902;10.844;2024-03-02T04:48:29;98449.31;;;8.99;100.00
53546;BME280;39432;51.902;10.844;2024-03-02T04:50:59;98440.34;;;8.68;100.00
53546;BME280;39432;51.902;10.844;2024-03-02T04:53:32;98435.72;;;8.84;100.00
53546;BME280;39432;51.902;10.844;2024-03-02T04:56:02;98434.56;;;9.10;100.00
53546;BME280;39432;51.902;10.844;2024-03-02T04:59:06;98424.69;;;9.35;100.00
53546;BME280;39432;51.902;10.844;2024-03-02T05:01:36;98416.59;;;8.94;100.00
53546;BME280;39432;51.902;10.844;2024-03-02T05:04:06;98420.72;;;8.91;100.00
53546;BME280;39432;51.902;10.844;2024-03-02T05:06:38;98422.28;;;9.13;100.00
53546;BME280;39432;51.902;10.844;2024-03-02T05:09:12;98422.03;;;9.04;100.00
53546;BME280;39432;51.902;10.844;2024-03-02T05:11:41;98424.09;;;9.43;100.00
53546;BME280;39432;51.902;10.844;2024-03-02T05:14:33;98410.91;;;8.85;100.00
53546;BME280;39432;51.902;10.844;2024-03-02T05:17:03;98420.63;;;9.12;100.00
53546;BME280;39432;51.902;10.844;2024-03-02T05:19:33;98425.34;;;9.01;100.00
53546;BME280;39432;51.902;10.844;2024-03-02T05:22:03;98424.72;;;9.24;100.00
53546;BME280;39432;51.902;10.844;2024-03-02T05:24:35;98419.91;;;8.91;100.00
53546;BME280;39432;51.902;10.844;2024-03-02T05:27:05;98423.75;;;8.80;100.00
53546;BME280;39432;51.902;10.844;2024-03-02T05:29:35;98439.00;;;8.65;100.00
53546;BME280;39432;51.902;10.844;2024-03-02T05:32:06;98442.31;;;8.47;100.00
53546;BME280;39432;51.902;10.844;2024-03-02T05:34:35;98442.28;;;8.73;100.00
53546;BME280;39432;51.902;10.844;2024-03-02T05:37:05;98438.47;;;8.58;100.00
53546;BME280;39432;51.902;10.844;2024-03-02T05:39:38;98445.84;;;8.58;100.00
53546;BME280;39432;51.902;10.844;2024-03-02T05:42:08;98449.38;;;8.38;100.00
53546;BME280;39432;51.902;10.844;2024-03-02T05:44:38;98459.72;;;8.61;100.00
53546;BME280;39432;51.902;10.844;2024-03-02T05:47:08;98461.09;;;8.49;100.00
53546;BME280;39432;51.902;10.844;2024-03-02T05:49:38;98462.69;;;8.24;100.00
53546;BME280;39432;51.902;10.844;2024-03-02T05:52:08;98476.66;;;8.68;100.00
53546;BME280;39432;51.902;10.844;2024-03-02T05:54:41;98471.72;;;8.86;100.00
53546;BME280;39432;51.902;10.844;2024-03-02T05:57:11;98474.44;;;8.40;100.00
53546;BME280;39432;51.902;10.844;2024-03-02T05:59:59;98481.25;;;8.68;100.00
53546;BME280;39432;51.902;10.844;2024-03-02T06:02:39;98480.72;;;8.91;100.00
53546;BME280;39432;51.902;10.844;2024-03-02T06:05:09;98472.25;;;8.93;100.00
53546;BME280;39432;51.902;10.844;2024-03-02T06:07:39;98476.06;;;8.92;100.00
53546;BME280;39432;51.902;10.844;2024-03-02T06:10:11;98458.59;;;9.08;100.00
53546;BME280;39432;51.902;10.844;2024-03-02T06:12:42;98461.59;;;9.07;100.00
53546;BME280;39432;51.902;10.844;2024-03-02T06:15:11;98466.75;;;9.13;100.00
53546;BME280;39432;51.902;10.844;2024-03-02T06:17:41;98460.41;;;9.33;100.00
53546;BME280;39432;51.902;10.844;2024-03-02T06:20:11;98462.97;;;8.84;100.00
53546;BME280;39432;51.902;10.844;2024-03-02T06:22:41;98464.66;;;8.54;100.00
53546;BME280;39432;51.902;10.844;2024-03-02T06:25:14;98468.09;;;9.21;100.00
53546;BME280;39432;51.902;10.844;2024-03-02T06:27:43;98458.53;;;9.29;100.00
53546;BME280;39432;51.902;10.844;2024-03-02T06:30:12;98467.88;;;9.02;100.00
53546;BME280;39432;51.902;10.844;2024-03-02T06:32:42;98457.47;;;9.24;100.00
53546;BME280;39432;51.902;10.844;2024-03-02T06:35:12;98467.25;;;9.41;100.00
53546;BME280;39432;51.902;10.844;2024-03-02T06:37:42;98465.94;;;9.83;100.00
53546;BME280;39432;51.902;10.844;2024-03-02T06:40:14;98466.09;;;9.52;100.00
53546;BME280;39432;51.902;10.844;2024-03-02T06:42:44;98463.41;;;9.42;100.00
53546;BME280;39432;51.902;10.844;2024-03-02T06:45:14;98465.81;;;9.54;100.00
53546;BME280;39432;51.902;10.844;2024-03-02T06:47:44;98457.41;;;9.45;100.00
53546;BME280;39432;51.902;10.844;2024-03-02T06:50:14;98466.59;;;9.64;100.00
53546;BME280;39432;51.902;10.844;2024-03-02T06:52:44;98455.94;;;9.68;100.00
53546;BME280;39432;51.902;10.844;2024-03-02T06:55:17;98458.84;;;9.87;100.00
53546;BME280;39432;51.902;10.844;2024-03-02T06:57:46;98461.19;;;9.44;100.00
53546;BME280;39432;51.902;10.844;2024-03-02T07:00:17;98459.81;;;9.52;100.00
53546;BME280;39432;51.902;10.844;2024-03-02T07:02:47;98462.78;;;9.60;100.00
53546;BME280;39432;51.902;10.844;2024-03-02T07:05:17;98460.69;;;9.37;100.00
53546;BME280;39432;51.902;10.844;2024-03-02T07:07:48;98466.34;;;9.56;100.00
53546;BME280;39432;51.902;10.844;2024-03-02T07:10:20;98469.47;;;9.23;100.00
53546;BME280;39432;51.902;10.844;2024-03-02T07:12:51;98462.75;;;9.65;100.00
53546;BME280;39432;51.902;10.844;2024-03-02T07:15:23;98459.72;;;8.61;100.00
53546;BME280;39432;51.902;10.844;2024-03-02T07:18:11;98474.97;;;8.88;100.00
53546;BME280;39432;51.902;10.844;2024-03-02T07:20:41;98472.69;;;9.41;100.00
53546;BME280;39432;51.902;10.844;2024-03-02T07:23:11;98476.88;;;9.13;100.00
53546;BME280;39432;51.902;10.844;2024-03-02T07:25:43;98483.66;;;9.20;100.00
53546;BME280;39432;51.902;10.844;2024-03-02T07:28:16;98484.13;;;9.53;100.00
53546;BME280;39432;51.902;10.844;2024-03-02T07:30:46;98482.47;;;9.52;100.00
53546;BME280;39432;51.902;10.844;2024-03-02T07:33:16;98487.97;;;9.47;100.00
53546;BME280;39432;51.902;10.844;2024-03-02T07:35:48;98495.16;;;8.56;100.00
53546;BME280;39432;51.902;10.844;2024-03-02T07:38:18;98504.97;;;8.98;100.00
53546;BME280;39432;51.902;10.844;2024-03-02T07:40:51;98521.09;;;8.59;100.00
53546;BME280;39432;51.902;10.844;2024-03-02T07:43:21;98536.28;;;9.52;100.00
53546;BME280;39432;51.902;10.844;2024-03-02T07:45:51;98532.75;;;9.41;100.00
53546;BME280;39432;51.902;10.844;2024-03-02T07:48:21;98535.25;;;8.56;100.00
53546;BME280;39432;51.902;10.844;2024-03-02T07:50:51;98547.53;;;8.63;100.00
53546;BME280;39432;51.902;10.844;2024-03-02T07:53:21;98551.91;;;8.85;100.00
53546;BME280;39432;51.902;10.844;2024-03-02T07:55:53;98560.09;;;8.85;100.00
53546;BME280;39432;51.902;10.844;2024-03-02T07:58:28;98552.28;;;9.84;100.00
53546;BME280;39432;51.902;10.844;2024-03-02T08:01:01;98537.84;;;9.73;100.00
53546;BME280;39432;51.902;10.844;2024-03-02T08:03:31;98536.75;;;10.39;100.00
53546;BME280;39432;51.902;10.844;2024-03-02T08:06:02;98521.19;;;9.74;100.00
53546;BME280;39432;51.902;10.844;2024-03-02T08:08:32;98542.53;;;9.57;100.00
53546;BME280;39432;51.902;10.844;2024-03-02T08:11:04;98529.16;;;10.20;100.00
53546;BME280;39432;51.902;10.844;2024-03-02T08:13:34;98519.50;;;10.77;100.00
53546;BME280;39432;51.902;10.844;2024-03-02T08:16:05;98515.28;;;10.90;100.00
53546;BME280;39432;51.902;10.844;2024-03-02T08:18:36;98520.16;;;10.15;100.00
53546;BME280;39432;51.902;10.844;2024-03-02T08:21:06;98522.00;;;10.35;100.00
53546;BME280;39432;51.902;10.844;2024-03-02T08:23:36;98517.25;;;10.85;100.00
53546;BME280;39432;51.902;10.844;2024-03-02T08:26:12;98510.06;;;10.60;100.00
53546;BME280;39432;51.902;10.844;2024-03-02T08:28:42;98516.25;;;10.36;100.00
53546;BME280;39432;51.902;10.844;2024-03-02T08:31:12;98513.84;;;10.19;100.00
53546;BME280;39432;51.902;10.844;2024-03-02T08:33:42;98514.34;;;10.32;100.00
53546;BME280;39432;51.902;10.844;2024-03-02T08:36:12;98515.28;;;10.56;100.00
53546;BME280;39432;51.902;10.844;2024-03-02T08:38:43;98518.63;;;10.48;100.00
53546;BME280;39432;51.902;10.844;2024-03-02T08:41:16;98514.63;;;10.69;100.00
53546;BME280;39432;51.902;10.844;2024-03-02T08:43:46;98511.81;;;10.79;100.00
53546;BME280;39432;51.902;10.844;2024-03-02T08:46:16;98509.78;;;10.95;100.00
53546;BME280;39432;51.902;10.844;2024-03-02T08:48:46;98503.94;;;10.73;100.00
53546;BME280;39432;51.902;10.844;2024-03-02T08:51:16;98502.03;;;11.02;100.00
53546;BME280;39432;51.902;10.844;2024-03-02T08:53:46;98497.22;;;11.71;100.00
53546;BME280;39432;51.902;10.844;2024-03-02T08:56:18;98486.50;;;11.99;100.00
53546;BME280;39432;51.902;10.844;2024-03-02T08:58:51;98490.91;;;11.95;100.00
53546;BME280;39432;51.902;10.844;2024-03-02T09:01:21;98492.78;;;11.51;100.00
53546;BME280;39432;51.902;10.844;2024-03-02T09:03:51;98486.00;;;11.92;100.00
53546;BME280;39432;51.902;10.844;2024-03-02T09:06:21;98482.31;;;11.82;100.00
53546;BME280;39432;51.902;10.844;2024-03-02T09:08:51;98485.50;;;12.46;100.00
53546;BME280;39432;51.902;10.844;2024-03-02T09:11:24;98487.09;;;12.15;100.00
53546;BME280;39432;51.902;10.844;2024-03-02T09:13:53;98490.03;;;12.18;100.00
53546;BME280;39432;51.902;10.844;2024-03-02T09:16:24;98481.47;;;12.44;100.00
53546;BME280;39432;51.902;10.844;2024-03-02T09:18:58;98484.16;;;12.81;100.00
53546;BME280;39432;51.902;10.844;2024-03-02T09:21:28;98485.00;;;12.44;100.00
53546;BME280;39432;51.902;10.844;2024-03-02T09:23:58;98482.06;;;12.73;100.00
53546;BME280;39432;51.902;10.844;2024-03-02T09:26:32;98488.41;;;11.74;100.00
53546;BME280;39432;51.902;10.844;2024-03-02T09:29:01;98495.66;;;12.08;100.00
53546;BME280;39432;51.902;10.844;2024-03-02T09:31:31;98493.31;;;12.20;100.00
53546;BME280;39432;51.902;10.844;2024-03-02T09:34:01;98489.56;;;13.00;100.00
53546;BME280;39432;51.902;10.844;2024-03-02T09:36:31;98493.28;;;13.09;100.00
53546;BME280;39432;51.902;10.844;2024-03-02T09:39:01;98487.72;;;12.82;100.00
53546;BME280;39432;51.902;10.844;2024-03-02T09:41:34;98493.41;;;12.85;100.00
53546;BME280;39432;51.902;10.844;2024-03-02T09:44:05;98484.66;;;12.83;100.00
53546;BME280;39432;51.902;10.844;2024-03-02T09:46:35;98488.94;;;12.89;100.00
53546;BME280;39432;51.902;10.844;2024-03-02T09:49:06;98491.66;;;12.57;100.00
53546;BME280;39432;51.902;10.844;2024-03-02T09:51:36;98503.38;;;12.25;100.00
53546;BME280;39432;51.902;10.844;2024-03-02T09:54:07;98507.78;;;12.26;100.00
53546;BME280;39432;51.902;10.844;2024-03-02T09:56:50;98509.03;;;12.33;100.00
53546;BME280;39432;51.902;10.844;2024-03-02T09:59:20;98510.66;;;12.34;100.00
53546;BME280;39432;51.902;10.844;2024-03-02T10:01:56;98502.59;;;12.95;100.00
53546;BME280;39432;51.902;10.844;2024-03-02T10:04:28;98496.19;;;12.66;100.00
53546;BME280;39432;51.902;10.844;2024-03-02T10:07:12;98502.16;;;12.87;100.00
53546;BME280;39432;51.902;10.844;2024-03-02T10:09:44;98506.34;;;12.66;100.00
53546;BME280;39432;51.902;10.844;2024-03-02T10:12:17;98507.78;;;12.26;100.00
53546;BME280;39432;51.902;10.844;2024-03-02T10:14:48;98518.97;;;12.48;100.00
53546;BME280;39432;51.902;10.844;2024-03-02T10:17:19;98523.72;;;12.43;100.00
53546;BME280;39432;51.902;10.844;2024-03-02T10:19:49;98524.78;;;12.04;100.00
53546;BME280;39432;51.902;10.844;2024-03-02T10:22:22;98527.25;;;12.24;100.00
53546;BME280;39432;51.902;10.844;2024-03-02T10:24:53;98529.03;;;12.15;100.00
53546;BME280;39432;51.902;10.844;2024-03-02T10:27:28;98521.25;;;12.22;100.00
53546;BME280;39432;51.902;10.844;2024-03-02T10:29:58;98527.25;;;12.24;100.00
53546;BME280;39432;51.902;10.844;2024-03-02T10:32:29;98530.91;;;11.96;100.00
53546;BME280;39432;51.902;10.844;2024-03-02T10:34:59;98535.28;;;11.97;100.00
53546;BME280;39432;51.902;10.844;2024-03-02T10:37:30;98536.69;;;12.56;100.00
53546;BME280;39432;51.902;10.844;2024-03-02T10:40:04;98512.19;;;13.11;100.00
53546;BME280;39432;51.902;10.844;2024-03-02T10:42:38;98495.38;;;13.31;100.00
53546;BME280;39432;51.902;10.844;2024-03-02T10:45:09;98499.28;;;13.58;100.00
53546;BME280;39432;51.902;10.844;2024-03-02T10:47:40;98495.84;;;14.66;100.00
53546;BME280;39432;51.902;10.844;2024-03-02T10:50:11;98479.50;;;13.83;100.00
53546;BME280;39432;51.902;10.844;2024-03-02T10:52:41;98486.78;;;14.15;100.00
53546;BME280;39432;51.902;10.844;2024-03-02T10:55:12;98492.16;;;14.34;100.00
53546;BME280;39432;51.902;10.844;2024-03-02T10:57:50;98484.19;;;13.83;100.00
53546;BME280;39432;51.902;10.844;2024-03-02T11:00:24;98489.00;;;14.41;100.00
53546;BME280;39432;51.902;10.844;2024-03-02T11:03:05;98482.78;;;13.85;100.00
53546;BME280;39432;51.902;10.844;2024-03-02T11:05:38;98484.63;;;14.26;100.00
53546;BME280;39432;51.902;10.844;2024-03-02T11:08:12;98492.47;;;14.33;100.00
53546;BME280;39432;51.902;10.844;2024-03-02T11:10:51;98483.59;;;14.72;100.00
53546;BME280;39432;51.902;10.844;2024-03-02T11:13:28;98479.97;;;15.87;100.00
53546;BME280;39432;51.902;10.844;2024-03-02T11:16:17;98479.72;;;14.51;100.00
53546;BME280;39432;51.902;10.844;2024-03-02T11:18:51;98473.03;;;13.52;100.00
53546;BME280;39432;51.902;10.844;2024-03-02T11:26:20;98468.13;;;15.07;100.00
53546;BME280;39432;51.902;10.844;2024-03-02T11:33:56;98467.81;;;14.64;100.00
53546;BME280;39432;51.902;10.844;2024-03-02T11:38:14;98465.31;;;14.76;100.00
53546;BME280;39432;51.902;10.844;2024-03-02T11:42:58;98464.78;;;14.15;100.00
53546;BME280;39432;51.902;10.844;2024-03-02T11:45:54;98465.13;;;14.95;100.00
53546;BME280;39432;51.902;10.844;2024-03-02T11:49:20;98458.44;;;15.49;100.00
53546;BME280;39432;51.902;10.844;2024-03-02T11:53:09;98451.47;;;15.21;100.00
53546;BME280;39432;51.902;10.844;2024-03-02T12:02:31;98446.34;;;15.28;100.00
53546;BME280;39432;51.902;10.844;2024-03-02T12:20:58;98436.81;;;15.43;100.00
53546;BME280;39432;51.902;10.844;2024-03-02T12:24:26;98434.22;;;14.17;100.00
53546;BME280;39432;51.902;10.844;2024-03-02T12:28:06;98431.31;;;15.43;100.00
53546;BME280;39432;51.902;10.844;2024-03-02T12:31:50;98435.22;;;15.11;100.00
53546;BME280;39432;51.902;10.844;2024-03-02T12:35:18;98439.09;;;15.72;100.00
53546;BME280;39432;51.902;10.844;2024-03-02T12:42:34;98441.25;;;16.18;99.60
53546;BME280;39432;51.902;10.844;2024-03-02T12:55:20;98434.22;;;14.75;100.00
53546;BME280;39432;51.902;10.844;2024-03-02T12:58:44;98434.22;;;15.38;99.68
53546;BME280;39432;51.902;10.844;2024-03-02T13:03:27;98423.78;;;15.26;100.00
53546;BME280;39432;51.902;10.844;2024-03-02T13:06:16;98426.91;;;15.73;98.97
53546;BME280;39432;51.902;10.844;2024-03-02T13:10:44;98426.47;;;15.09;99.30
53546;BME280;39432;51.902;10.844;2024-03-02T13:18:10;98433.09;;;14.76;99.94
53546;BME280;39432;51.902;10.844;2024-03-02T13:25:59;98422.69;;;14.96;99.08
53546;BME280;39432;51.902;10.844;2024-03-02T13:32:42;98418.41;;;15.21;100.00
53546;BME280;39432;51.902;10.844;2024-03-02T13:46:39;98410.59;;;14.52;100.00
53546;BME280;39432;51.902;10.844;2024-03-02T13:50:11;98416.13;;;14.83;99.50
53546;BME280;39432;51.902;10.844;2024-03-02T14:01:00;98415.19;;;14.65;100.00
53546;BME280;39432;51.902;10.844;2024-03-02T14:35:15;98401.28;;;14.62;100.00
53546;BME280;39432;51.902;10.844;2024-03-02T14:37:46;98407.31;;;14.50;100.00
53546;BME280;39432;51.902;10.844;2024-03-02T14:40:15;98400.72;;;14.82;100.00
53546;BME280;39432;51.902;10.844;2024-03-02T14:42:45;98401.38;;;14.79;100.00
53546;BME280;39432;51.902;10.844;2024-03-02T14:45:16;98399.47;;;14.43;100.00
53546;BME280;39432;51.902;10.844;2024-03-02T14:47:49;98395.41;;;15.17;99.91
53546;BME280;39432;51.902;10.844;2024-03-02T14:50:22;98406.63;;;15.29;96.15
53546;BME280;39432;51.902;10.844;2024-03-02T14:52:52;98396.63;;;15.42;93.41
53546;BME280;39432;51.902;10.844;2024-03-02T14:55:28;98398.28;;;15.51;92.31
53546;BME280;39432;51.902;10.844;2024-03-02T14:57:58;98395.13;;;14.96;94.09
53546;BME280;39432;51.902;10.844;2024-03-02T15:00:34;98394.94;;;14.92;95.60
53546;BME280;39432;51.902;10.844;2024-03-02T15:03:10;98388.28;;;15.24;91.20
53546;BME280;39432;51.902;10.844;2024-03-02T15:05:59;98385.47;;;15.55;91.71
53546;BME280;39432;51.902;10.844;2024-03-02T15:08:37;98388.19;;;14.98;94.94
53546;BME280;39432;51.902;10.844;2024-03-02T15:11:17;98387.28;;;15.20;93.47
53546;BME280;39432;51.902;10.844;2024-03-02T15:13:49;98386.16;;;15.13;94.19
53546;BME280;39432;51.902;10.844;2024-03-02T15:16:28;98385.69;;;14.88;95.87
53546;BME280;39432;51.902;10.844;2024-03-02T15:19:05;98381.72;;;14.72;97.44